Portada
METAR-TAF:

METAR-TAF

Aeroports :

Tri-County Airport

Ahoskie, Carolina del Nord, Estats Units d'Amèrica

latitud: 36-17-51N, longitud: 077-10-15W, altitud: 21 m

Observació

L'informe es va fer fa 22 minuts, a les 16:55 UTC
Vent 6 kt del Nord-Est
Temperatura 24°C
Humitat 100%
Pressió 1012 hPa
Visibilitat: 3.2 km
Núvols disperses a una alçada de 900 ft
Cel ennuvolat a una alçada de 1800 ft
Cel cobert a una alçada de 3600 ft
pluja

METAR: KASJ 151655Z AUTO 05006KT 2SM -RA SCT009 BKN018 OVC036 24/24 A2989 RMK AO2 P0003 T02400240

Hora: 13:17 (17:17 UTC)


TAF: manca

Observacions i pronòstics meteorològics de més de 4000 aeroports (METAR i TAF).

Les estacions disponibles són els punts grocs i vermells al mapa.

Posi el ratolí al punt desitjat per veure el nom de l'estació.

Feu clic per veure les observacions i els pronòstics meteorològics.

Per canviar el mapa: feu clic els botons verds amb una creu de color negre per apropar; al botó verd amb un guió per allunyar la imatge; o en les fletxes verdes per a mapes adjacents.


METAR-TAF: